createdAt,value
2023-11-16T00:00:37.827Z,18.00
2023-11-16T00:03:06.842Z,18.34
2023-11-16T00:05:36.914Z,17.56
2023-11-16T00:08:08.754Z,18.24
2023-11-16T00:10:36.156Z,17.02
2023-11-16T00:13:06.272Z,18.99
2023-11-16T00:15:34.891Z,24.28
2023-11-16T00:18:05.241Z,23.11
2023-11-16T00:20:39.334Z,18.70
2023-11-16T00:23:07.311Z,16.38
2023-11-16T00:25:34.573Z,15.28
2023-11-16T00:28:02.052Z,15.32
2023-11-16T00:30:29.122Z,15.59
2023-11-16T00:32:56.242Z,14.45
2023-11-16T00:35:23.573Z,14.60
2023-11-16T00:37:54.180Z,13.20
2023-11-16T00:40:23.893Z,11.79
2023-11-16T00:42:52.335Z,11.86
2023-11-16T00:45:23.543Z,13.25
2023-11-16T00:47:50.682Z,12.99
2023-11-16T00:50:17.678Z,13.87
2023-11-16T00:52:48.333Z,13.69
2023-11-16T00:55:16.748Z,12.77
2023-11-16T00:57:49.371Z,12.34
2023-11-16T01:00:17.432Z,12.62
2023-11-16T01:02:44.571Z,12.64
2023-11-16T01:05:11.652Z,13.81
2023-11-16T01:07:39.978Z,13.58
2023-11-16T01:10:08.754Z,13.54
2023-11-16T01:12:36.520Z,13.98
2023-11-16T01:15:11.715Z,14.27
2023-11-16T01:17:40.281Z,13.48
2023-11-16T01:20:19.333Z,14.01
2023-11-16T01:23:02.491Z,14.44
2023-11-16T01:25:33.807Z,13.94
2023-11-16T01:28:02.288Z,13.80
2023-11-16T01:30:30.071Z,13.53
2023-11-16T01:32:58.269Z,13.49
2023-11-16T01:35:26.912Z,13.64
2023-11-16T01:37:57.541Z,13.91
2023-11-16T01:40:27.510Z,14.21
2023-11-16T01:42:58.685Z,14.82
2023-11-16T01:45:37.391Z,14.83
2023-11-16T01:48:08.565Z,14.69
2023-11-16T01:50:38.669Z,14.85
2023-11-16T01:53:12.277Z,15.62
2023-11-16T01:55:43.163Z,16.32
2023-11-16T01:58:11.225Z,17.43
2023-11-16T02:00:44.247Z,17.28
2023-11-16T02:03:14.678Z,17.10
2023-11-16T02:05:42.345Z,19.18
2023-11-16T02:08:10.919Z,19.97
2023-11-16T02:10:39.648Z,19.22
2023-11-16T02:13:26.974Z,19.74
2023-11-16T02:15:57.224Z,19.70
2023-11-16T02:18:27.248Z,20.12
2023-11-16T02:20:56.434Z,20.39
2023-11-16T02:23:23.965Z,19.99
2023-11-16T02:25:58.339Z,20.16
2023-11-16T02:28:25.694Z,19.59
2023-11-16T02:30:53.600Z,19.36
2023-11-16T02:33:21.212Z,19.54
2023-11-16T02:35:49.791Z,19.57
2023-11-16T02:38:18.259Z,19.01
2023-11-16T02:40:45.986Z,18.53
2023-11-16T02:43:13.387Z,18.59
2023-11-16T02:45:41.077Z,17.98
2023-11-16T02:48:08.269Z,16.90
2023-11-16T02:50:35.940Z,18.10
2023-11-16T02:53:04.571Z,17.58
2023-11-16T02:55:34.425Z,17.88
2023-11-16T02:58:04.119Z,17.62
2023-11-16T03:00:33.686Z,18.12
2023-11-16T03:03:03.743Z,18.15
2023-11-16T03:05:32.986Z,18.12
2023-11-16T03:08:00.252Z,17.59
2023-11-16T03:10:29.877Z,18.66
2023-11-16T03:12:57.457Z,18.96
2023-11-16T03:15:24.442Z,18.47
2023-11-16T03:17:51.598Z,18.57
2023-11-16T03:20:22.132Z,18.89
2023-11-16T03:22:50.014Z,19.34
2023-11-16T03:25:17.299Z,18.31
2023-11-16T03:27:45.947Z,17.20
2023-11-16T03:30:17.425Z,16.85
2023-11-16T03:32:46.951Z,18.46
2023-11-16T03:35:17.261Z,17.83
2023-11-16T03:37:47.105Z,17.78
2023-11-16T03:40:14.159Z,17.91
2023-11-16T03:42:42.360Z,17.60
2023-11-16T03:45:12.328Z,17.19
2023-11-16T03:47:39.595Z,17.78
2023-11-16T03:50:07.255Z,17.67
2023-11-16T03:52:34.628Z,17.46
2023-11-16T03:55:01.698Z,17.50
2023-11-16T03:57:29.044Z,17.78
2023-11-16T03:59:56.253Z,16.94
2023-11-16T04:02:23.383Z,15.69
2023-11-16T04:04:53.502Z,16.03
2023-11-16T04:07:20.624Z,15.73
2023-11-16T04:09:48.213Z,16.05
2023-11-16T04:12:16.702Z,16.19
2023-11-16T04:14:44.706Z,15.99
2023-11-16T04:17:14.924Z,15.72
2023-11-16T04:19:43.207Z,15.77
2023-11-16T04:22:11.752Z,15.52
2023-11-16T04:24:42.856Z,15.67
2023-11-16T04:27:10.959Z,15.79
2023-11-16T04:29:38.880Z,15.11
2023-11-16T04:32:07.039Z,15.40
2023-11-16T04:34:34.319Z,15.07
2023-11-16T04:37:08.353Z,14.82
2023-11-16T04:39:35.374Z,15.31
2023-11-16T04:42:02.593Z,14.98
2023-11-16T04:44:29.734Z,16.00
2023-11-16T04:46:57.492Z,16.05
2023-11-16T04:49:24.730Z,15.80
2023-11-16T04:51:52.053Z,15.53
2023-11-16T04:54:21.753Z,15.62
2023-11-16T04:56:48.755Z,15.50
2023-11-16T04:59:15.856Z,15.38
2023-11-16T05:01:42.919Z,15.79
2023-11-16T05:04:10.162Z,15.20
2023-11-16T05:06:42.161Z,14.48
2023-11-16T05:09:09.896Z,15.01
2023-11-16T05:11:39.152Z,15.24
2023-11-16T05:14:06.086Z,15.33
2023-11-16T05:16:32.957Z,15.54
2023-11-16T05:18:59.982Z,15.54
2023-11-16T05:21:27.712Z,15.69
2023-11-16T05:23:54.781Z,15.66
2023-11-16T05:26:21.857Z,15.16
2023-11-16T05:28:51.094Z,15.79
2023-11-16T05:31:18.098Z,15.73
2023-11-16T05:33:45.136Z,15.46
2023-11-16T05:36:12.735Z,15.63
2023-11-16T05:38:40.039Z,15.40
2023-11-16T05:41:08.182Z,15.36
2023-11-16T05:43:36.208Z,15.29
2023-11-16T05:46:03.239Z,15.39
2023-11-16T05:48:30.263Z,15.54
2023-11-16T05:50:58.454Z,16.21
2023-11-16T05:53:25.421Z,16.13
2023-11-16T05:55:53.819Z,15.76
2023-11-16T05:58:21.267Z,15.98
2023-11-16T06:00:48.939Z,16.07
2023-11-16T06:03:17.482Z,14.93
2023-11-16T06:05:44.637Z,15.15
2023-11-16T06:08:11.886Z,15.56
2023-11-16T06:10:42.817Z,16.23
2023-11-16T06:13:11.051Z,15.86
2023-11-16T06:15:38.171Z,15.81
2023-11-16T06:18:15.502Z,15.76
2023-11-16T06:20:47.839Z,16.20
2023-11-16T06:23:15.044Z,15.44
2023-11-16T06:25:43.371Z,15.63
2023-11-16T06:28:11.444Z,15.55
2023-11-16T06:30:40.457Z,16.00
2023-11-16T06:33:07.910Z,15.62
2023-11-16T06:35:34.945Z,16.19
2023-11-16T06:38:02.579Z,16.35
2023-11-16T06:40:31.871Z,16.36
2023-11-16T06:43:00.265Z,16.38
2023-11-16T06:45:30.701Z,16.50
2023-11-16T06:48:03.429Z,16.33
2023-11-16T06:50:35.269Z,16.41
2023-11-16T06:53:06.868Z,18.88
2023-11-16T06:55:34.042Z,20.79
2023-11-16T06:58:03.576Z,22.08
2023-11-16T07:00:32.137Z,20.47
2023-11-16T07:02:59.449Z,20.44
2023-11-16T07:05:26.912Z,19.35
2023-11-16T07:07:54.064Z,19.06
2023-11-16T07:10:21.374Z,18.64
2023-11-16T07:12:48.702Z,19.30
2023-11-16T07:15:16.389Z,18.82
2023-11-16T07:17:44.695Z,18.52
2023-11-16T07:20:13.347Z,20.09
2023-11-16T07:22:42.393Z,20.02
2023-11-16T07:25:13.401Z,20.06
2023-11-16T07:27:40.592Z,19.53
2023-11-16T07:30:08.880Z,19.48
2023-11-16T07:32:36.621Z,19.10
2023-11-16T07:35:16.136Z,18.69
2023-11-16T07:37:48.697Z,18.66
2023-11-16T07:40:21.619Z,18.51
2023-11-16T07:42:48.756Z,19.41
2023-11-16T07:45:16.703Z,19.26
2023-11-16T07:47:46.153Z,18.26
2023-11-16T07:50:17.046Z,18.17
2023-11-16T07:52:45.101Z,17.56
2023-11-16T07:55:17.717Z,17.96
2023-11-16T07:57:51.227Z,18.15
2023-11-16T08:00:31.671Z,18.51
2023-11-16T08:03:19.219Z,17.71
2023-11-16T08:05:48.493Z,18.14
2023-11-16T08:08:20.446Z,17.98
2023-11-16T08:10:52.475Z,17.02
2023-11-16T08:13:19.998Z,17.50
2023-11-16T08:15:55.060Z,16.91
2023-11-16T08:18:23.150Z,16.34
2023-11-16T08:20:55.192Z,16.99
2023-11-16T08:23:26.936Z,16.95
2023-11-16T08:25:59.208Z,17.21
2023-11-16T08:28:29.815Z,17.04
2023-11-16T08:31:00.015Z,16.66
2023-11-16T08:34:18.009Z,16.47
2023-11-16T08:37:02.726Z,16.77
2023-11-16T08:39:30.663Z,16.22
2023-11-16T08:42:54.520Z,16.10
2023-11-16T08:45:22.828Z,15.60
2023-11-16T08:48:00.898Z,16.21
2023-11-16T08:50:29.086Z,16.65
2023-11-16T08:52:58.848Z,16.97
2023-11-16T08:55:27.408Z,17.28
2023-11-16T08:58:00.781Z,16.70
2023-11-16T09:00:29.530Z,15.97
2023-11-16T09:03:05.029Z,15.82
2023-11-16T09:05:34.031Z,15.56
2023-11-16T09:08:02.480Z,15.58
2023-11-16T09:10:33.464Z,15.92
2023-11-16T09:13:02.067Z,15.19
2023-11-16T09:15:30.525Z,16.51
2023-11-16T09:17:59.660Z,15.49
2023-11-16T09:20:29.146Z,15.32
2023-11-16T09:22:59.099Z,15.07
2023-11-16T09:25:32.883Z,14.97
2023-11-16T09:28:02.443Z,14.75
2023-11-16T09:30:44.579Z,15.11
2023-11-16T09:33:14.256Z,14.79
2023-11-16T09:36:06.521Z,15.03
2023-11-16T09:38:37.833Z,14.89
2023-11-16T09:41:27.272Z,15.64
2023-11-16T09:44:31.482Z,14.65
2023-11-16T09:47:04.818Z,15.36
2023-11-16T09:53:37.025Z,15.04
2023-11-16T09:56:06.212Z,15.52
2023-11-16T09:58:41.007Z,14.13
2023-11-16T10:01:20.233Z,14.41
2023-11-16T10:03:49.977Z,14.50
2023-11-16T10:06:22.042Z,14.85
2023-11-16T10:08:53.116Z,14.85
2023-11-16T10:11:32.569Z,15.01
2023-11-16T10:14:00.825Z,15.55
2023-11-16T10:16:31.227Z,15.65
2023-11-16T10:19:08.923Z,15.75
2023-11-16T10:21:43.465Z,15.79
2023-11-16T10:24:13.645Z,16.12
2023-11-16T10:26:41.411Z,15.48
2023-11-16T10:29:12.578Z,15.66
2023-11-16T10:31:47.765Z,16.22
2023-11-16T10:34:19.440Z,16.64
2023-11-16T10:36:48.100Z,16.89
2023-11-16T10:39:17.867Z,16.49
2023-11-16T10:41:46.260Z,17.45
2023-11-16T10:44:15.211Z,17.23
2023-11-16T10:46:44.686Z,17.65
2023-11-16T10:49:14.881Z,18.49
2023-11-16T10:51:48.614Z,18.13
2023-11-16T10:54:21.192Z,18.34
2023-11-16T10:56:54.873Z,18.27
2023-11-16T10:59:29.023Z,18.84
2023-11-16T11:02:02.246Z,19.09
2023-11-16T11:04:29.832Z,18.93
2023-11-16T11:06:58.148Z,19.68
2023-11-16T11:09:47.615Z,20.07
2023-11-16T11:12:17.174Z,21.02
2023-11-16T11:14:52.897Z,21.41
2023-11-16T11:17:31.452Z,21.52
2023-11-16T11:20:00.672Z,22.64
2023-11-16T11:22:32.962Z,23.34
2023-11-16T11:25:07.502Z,25.43
2023-11-16T11:27:34.675Z,24.60
2023-11-16T11:30:12.289Z,25.40
2023-11-16T11:33:00.858Z,25.37
2023-11-16T11:35:39.052Z,26.31
2023-11-16T11:38:20.968Z,26.81
2023-11-16T11:41:00.228Z,28.29
2023-11-16T11:43:28.269Z,28.12
2023-11-16T11:45:59.201Z,28.76
2023-11-16T11:48:28.165Z,28.17
2023-11-16T11:51:00.744Z,27.90
2023-11-16T11:53:31.373Z,27.55
2023-11-16T11:56:00.390Z,27.82
2023-11-16T11:58:30.324Z,28.49
2023-11-16T12:01:05.375Z,29.89
2023-11-16T12:03:34.977Z,30.47
2023-11-16T12:06:04.323Z,29.79
2023-11-16T12:08:52.692Z,30.82
2023-11-16T12:11:27.108Z,30.29
2023-11-16T12:13:56.869Z,39.19
2023-11-16T12:16:25.440Z,31.99
2023-11-16T12:18:55.322Z,31.45
2023-11-16T12:21:24.685Z,31.87
2023-11-16T12:23:56.640Z,31.11
2023-11-16T12:26:30.033Z,33.07
2023-11-16T12:29:01.473Z,34.71
2023-11-16T12:31:29.032Z,34.52
2023-11-16T12:33:58.824Z,34.69
2023-11-16T12:36:32.716Z,34.43
2023-11-16T12:39:00.334Z,34.88
2023-11-16T12:41:27.754Z,39.73
2023-11-16T12:43:54.929Z,41.42
2023-11-16T12:46:26.577Z,44.62
2023-11-16T12:48:59.031Z,47.02
2023-11-16T12:51:33.362Z,49.92
2023-11-16T12:54:09.864Z,51.14
2023-11-16T12:56:39.308Z,49.61
2023-11-16T12:59:11.025Z,51.33
2023-11-16T13:01:52.005Z,51.62
2023-11-16T13:04:20.945Z,50.95
2023-11-16T13:06:51.658Z,51.17
2023-11-16T13:09:26.199Z,51.93
2023-11-16T13:12:00.518Z,55.41
2023-11-16T13:14:33.039Z,51.39
2023-11-16T13:17:05.172Z,51.68
2023-11-16T13:19:32.508Z,52.50
2023-11-16T13:22:02.979Z,53.87
2023-11-16T13:24:33.172Z,53.04
2023-11-16T13:27:00.786Z,53.26
2023-11-16T13:29:30.048Z,53.08
2023-11-16T13:32:00.551Z,52.09
2023-11-16T13:34:27.736Z,50.94
2023-11-16T13:36:56.947Z,50.42
2023-11-16T13:39:24.348Z,50.24
2023-11-16T13:41:51.597Z,51.07
2023-11-16T13:44:22.220Z,50.76
2023-11-16T13:46:51.214Z,49.64
2023-11-16T13:49:23.574Z,49.97
2023-11-16T13:52:00.078Z,50.08
2023-11-16T13:54:27.272Z,49.23
2023-11-16T13:56:57.160Z,49.41
2023-11-16T13:59:24.682Z,50.27
2023-11-16T14:01:51.851Z,49.01
2023-11-16T14:04:22.694Z,48.88
2023-11-16T14:06:50.133Z,48.54
2023-11-16T14:09:21.440Z,48.67
2023-11-16T14:11:51.637Z,48.58
2023-11-16T14:14:18.751Z,46.73
2023-11-16T14:16:46.179Z,46.25
2023-11-16T14:19:13.425Z,46.37
2023-11-16T14:21:43.734Z,46.56
2023-11-16T14:24:28.418Z,45.21
2023-11-16T14:27:01.231Z,44.42
2023-11-16T14:29:30.556Z,44.14
2023-11-16T14:31:57.766Z,43.66
2023-11-16T14:34:25.206Z,43.69
2023-11-16T14:36:55.154Z,43.22
2023-11-16T14:39:30.969Z,41.81
2023-11-16T14:41:58.277Z,40.61
2023-11-16T14:44:25.708Z,40.02
2023-11-16T14:47:15.132Z,39.69
2023-11-16T14:49:46.053Z,38.50
2023-11-16T14:52:16.120Z,36.02
2023-11-16T14:54:46.303Z,31.48
2023-11-16T14:57:16.065Z,34.69
2023-11-16T14:59:50.253Z,31.22
2023-11-16T15:02:21.385Z,30.87
2023-11-16T15:04:56.988Z,31.43
2023-11-16T15:07:29.622Z,33.35
2023-11-16T15:09:57.563Z,32.85
2023-11-16T15:12:27.822Z,31.29
2023-11-16T15:15:02.030Z,31.42
2023-11-16T15:17:29.942Z,30.74
2023-11-16T15:19:58.435Z,29.66
2023-11-16T15:22:35.017Z,29.58
2023-11-16T15:25:05.073Z,29.53
2023-11-16T15:27:41.057Z,29.76
2023-11-16T15:30:15.119Z,28.74
2023-11-16T15:32:45.540Z,28.53
2023-11-16T15:35:19.078Z,27.57
2023-11-16T15:37:48.044Z,27.47
2023-11-16T15:40:16.762Z,28.38
2023-11-16T15:42:45.364Z,28.42
2023-11-16T15:45:16.685Z,28.99
2023-11-16T15:47:43.962Z,28.36
2023-11-16T15:50:13.549Z,28.78
2023-11-16T15:52:40.809Z,28.42
2023-11-16T15:55:15.122Z,28.38
2023-11-16T15:57:47.309Z,28.19
2023-11-16T16:00:22.753Z,27.80
2023-11-16T16:02:56.003Z,27.62
2023-11-16T16:05:44.450Z,27.47
2023-11-16T16:08:20.706Z,28.65
2023-11-16T16:10:50.409Z,28.85
2023-11-16T16:13:17.662Z,28.69
2023-11-16T16:15:53.284Z,27.22
2023-11-16T16:18:20.636Z,28.51
2023-11-16T16:20:50.758Z,28.76
2023-11-16T16:23:21.626Z,28.62
2023-11-16T16:25:50.029Z,29.00
2023-11-16T16:28:23.108Z,28.24
2023-11-16T16:30:50.295Z,28.93
2023-11-16T16:33:17.892Z,28.98
2023-11-16T16:35:45.842Z,28.45
2023-11-16T16:38:16.890Z,28.90
2023-11-16T16:40:50.595Z,29.38
2023-11-16T16:43:19.248Z,30.24
2023-11-16T16:45:48.651Z,30.49
2023-11-16T16:48:24.459Z,30.30
2023-11-16T16:50:54.399Z,32.60
2023-11-16T16:53:27.744Z,32.92
2023-11-16T16:55:57.227Z,31.38
2023-11-16T16:58:26.689Z,30.78
2023-11-16T17:00:53.929Z,30.98
2023-11-16T17:03:21.793Z,30.40
2023-11-16T17:05:53.688Z,31.81
2023-11-16T17:08:23.329Z,33.31
2023-11-16T17:10:56.592Z,33.66
2023-11-16T17:13:32.105Z,33.81
2023-11-16T17:16:05.475Z,34.87
2023-11-16T17:18:40.206Z,33.32
2023-11-16T17:21:08.514Z,31.99
2023-11-16T17:23:36.017Z,34.47
2023-11-16T17:26:09.006Z,35.35
2023-11-16T17:28:41.724Z,35.05
2023-11-16T17:31:09.300Z,38.36
2023-11-16T17:33:39.872Z,35.96
2023-11-16T17:36:08.135Z,36.11
2023-11-16T17:38:37.046Z,36.32
2023-11-16T17:41:09.352Z,35.94
2023-11-16T17:43:41.497Z,35.63
2023-11-16T17:46:11.666Z,36.41
2023-11-16T17:48:38.911Z,37.81
2023-11-16T17:51:11.781Z,35.87
2023-11-16T17:53:48.721Z,35.86
2023-11-16T17:56:21.281Z,34.76
2023-11-16T17:58:48.996Z,35.10
2023-11-16T18:01:19.195Z,36.04
2023-11-16T18:03:57.157Z,35.39
2023-11-16T18:06:34.058Z,34.23
2023-11-16T18:09:07.806Z,33.05
2023-11-16T18:11:38.010Z,33.76
2023-11-16T18:14:08.845Z,34.76
2023-11-16T18:16:42.039Z,34.26
2023-11-16T18:19:11.259Z,34.11
2023-11-16T18:21:43.768Z,32.55
2023-11-16T18:24:18.591Z,32.85
2023-11-16T18:26:46.575Z,35.51
2023-11-16T18:29:21.287Z,41.33
2023-11-16T18:31:54.448Z,37.71
2023-11-16T18:34:45.293Z,37.30
2023-11-16T18:37:13.816Z,36.51
2023-11-16T18:39:41.189Z,34.81
2023-11-16T18:42:11.702Z,33.46
2023-11-16T18:44:39.816Z,32.55
2023-11-16T18:47:12.891Z,32.17
2023-11-16T18:49:44.195Z,31.95
2023-11-16T18:52:12.691Z,32.50
2023-11-16T18:54:43.986Z,31.29
2023-11-16T18:57:16.876Z,30.30
2023-11-16T18:59:45.368Z,29.26
2023-11-16T19:02:16.813Z,28.71
2023-11-16T19:04:45.380Z,28.70
2023-11-16T19:07:13.549Z,27.88
2023-11-16T19:09:42.145Z,29.52
2023-11-16T19:12:14.945Z,32.18
2023-11-16T19:14:45.993Z,32.48
2023-11-16T19:17:19.590Z,32.43
2023-11-16T19:19:50.037Z,29.91
2023-11-16T19:22:23.102Z,28.98
2023-11-16T19:24:53.360Z,28.40
2023-11-16T19:27:29.632Z,29.01
2023-11-16T19:30:02.402Z,28.82
2023-11-16T19:32:38.604Z,29.74
2023-11-16T19:35:13.166Z,29.38
2023-11-16T19:37:56.642Z,28.34
2023-11-16T19:40:41.656Z,27.45
2023-11-16T19:43:15.670Z,28.63
2023-11-16T19:45:43.283Z,26.84
2023-11-16T19:48:13.466Z,25.72
2023-11-16T19:50:43.567Z,27.36
2023-11-16T19:53:13.785Z,27.13
2023-11-16T19:55:41.091Z,27.38
2023-11-16T19:58:13.163Z,27.16
2023-11-16T20:00:42.468Z,26.67
2023-11-16T20:03:10.128Z,26.38
2023-11-16T20:05:37.490Z,26.33
2023-11-16T20:08:04.941Z,25.74
2023-11-16T20:10:37.994Z,25.91
2023-11-16T20:13:07.478Z,26.01
2023-11-16T20:15:35.847Z,25.57
2023-11-16T20:18:03.179Z,25.78
2023-11-16T20:20:36.172Z,25.46
2023-11-16T20:23:08.231Z,26.13
2023-11-16T20:25:35.740Z,26.91
2023-11-16T20:28:02.950Z,26.08
2023-11-16T20:30:32.438Z,28.45
2023-11-16T20:33:01.283Z,31.77
2023-11-16T20:35:28.897Z,30.87
2023-11-16T20:37:56.012Z,30.60
2023-11-16T20:40:23.271Z,31.47
2023-11-16T20:42:51.081Z,30.82
2023-11-16T20:45:21.596Z,28.29
2023-11-16T20:47:51.079Z,30.15
2023-11-16T20:50:20.950Z,31.62
2023-11-16T20:52:48.395Z,32.88
2023-11-16T20:55:16.162Z,33.92
2023-11-16T20:57:43.567Z,34.69
2023-11-16T21:00:15.376Z,35.55
2023-11-16T21:02:43.757Z,37.00
2023-11-16T21:05:21.700Z,37.82
2023-11-16T21:07:50.754Z,36.73
2023-11-16T21:10:18.265Z,37.51
2023-11-16T21:12:50.018Z,37.16
2023-11-16T21:15:17.661Z,36.34
2023-11-16T21:17:45.693Z,35.75
2023-11-16T21:20:16.620Z,35.72
2023-11-16T21:22:44.799Z,35.23
2023-11-16T21:25:13.271Z,34.62
2023-11-16T21:27:41.251Z,34.74
2023-11-16T21:30:17.466Z,33.98
2023-11-16T21:32:44.958Z,34.35
2023-11-16T21:35:15.971Z,32.13
2023-11-16T21:37:45.738Z,32.62
2023-11-16T21:40:15.798Z,31.85
2023-11-16T21:42:45.558Z,31.40
2023-11-16T21:45:16.158Z,31.11
2023-11-16T21:47:44.910Z,30.52
2023-11-16T21:50:17.939Z,31.01
2023-11-16T21:52:45.130Z,32.60
2023-11-16T21:55:13.003Z,31.82
2023-11-16T21:57:43.016Z,31.29
2023-11-16T22:00:11.593Z,30.92
2023-11-16T22:02:38.937Z,31.23
2023-11-16T22:05:14.037Z,30.82
2023-11-16T22:07:46.228Z,30.65
2023-11-16T22:10:18.153Z,30.50
2023-11-16T22:12:52.240Z,31.00
2023-11-16T22:15:20.678Z,30.93
2023-11-16T22:17:51.987Z,30.57
2023-11-16T22:20:21.814Z,32.40
2023-11-16T22:22:50.446Z,30.92
2023-11-16T22:25:19.002Z,31.07
2023-11-16T22:27:48.392Z,30.78
2023-11-16T22:30:24.605Z,31.16
2023-11-16T22:32:52.127Z,33.54
2023-11-16T22:35:19.956Z,32.77
2023-11-16T22:37:47.821Z,33.56
2023-11-16T22:40:18.515Z,32.86
2023-11-16T22:42:51.847Z,31.97
2023-11-16T22:45:41.584Z,32.48
2023-11-16T22:48:08.779Z,32.62
2023-11-16T22:50:36.255Z,32.50
2023-11-16T22:53:04.763Z,32.32
2023-11-16T22:55:32.650Z,32.93
2023-11-16T22:58:02.756Z,32.76
2023-11-16T23:00:29.751Z,32.85
2023-11-16T23:02:57.053Z,31.85
2023-11-16T23:05:24.183Z,32.16
2023-11-16T23:07:52.461Z,33.35
2023-11-16T23:10:20.229Z,32.69
2023-11-16T23:12:53.494Z,30.70
2023-11-16T23:15:22.741Z,31.20
2023-11-16T23:17:50.908Z,31.39
2023-11-16T23:20:18.959Z,32.27
2023-11-16T23:22:48.012Z,32.31
2023-11-16T23:25:16.565Z,33.00
2023-11-16T23:27:47.302Z,32.12
2023-11-16T23:30:14.519Z,32.00
2023-11-16T23:32:42.657Z,32.62
2023-11-16T23:35:11.558Z,32.03
2023-11-16T23:37:38.905Z,32.63
2023-11-16T23:40:07.450Z,33.01
2023-11-16T23:42:35.397Z,32.73
2023-11-16T23:45:03.207Z,32.18
2023-11-16T23:47:30.227Z,32.73
2023-11-16T23:49:57.554Z,33.25
2023-11-16T23:52:24.715Z,33.74
2023-11-16T23:54:52.078Z,32.53
2023-11-16T23:57:19.241Z,32.88
2023-11-16T23:59:48.042Z,31.93
